Monte Carlo — WDD6745 — position and weather

sailwx.info

Track history (hours):
 
Tides and Currents Weather Stations Pressure Air Temp Water Temp Dewpoint Dewpoint Depression Visibility Wind Speed Wind Dir Waves Ship Positions

Monte Carlo

Owner: PREMIER FISH CO., REDONDO BEACH, CA. More information available from US FCC via Universal Licensing System and Coast Guard Vessel Documentation Center.

Last reported at 2018-Jun-22 00:00 UTC. Time now 2018-Jun-21 23:58 UTC.
Position N 33°40' W 118°15'.

Length 22 m.

Type: Fishing. MMSI: 367176990.

Date/timePositionNaut miles runAvg speedWind from/ knotsBaromVisibWave heightAir tempDewpointWater temp
2018-Jun-22 00:00N 33°40' W 118°15'0 0.1
2018-Jun-21 23:30N 33°40' W 118°15'1 2.8
2018-Jun-21 23:00N 33°40' W 118°14'0 0.0
2018-Jun-21 22:30N 33°40' W 118°14'0 0.7
2018-Jun-21 22:01N 33°40' W 118°14'1 1.5
2018-Jun-21 21:30N 33°41' W 118°14'0 0.1
2018-Jun-21 20:59N 33°41' W 118°14'0 0.0
2018-Jun-21 20:31N 33°41' W 118°14'3 5.8
2018-Jun-21 20:00N 33°43' W 118°16'1 1.9
2018-Jun-21 19:31N 33°43' W 118°17'0 0.2
2018-Jun-21 19:01N 33°43' W 118°17'4 7.2
2018-Jun-21 18:31N 33°41' W 118°13'2 4.1
2018-Jun-21 18:00N 33°39' W 118°12'0 0.0
2018-Jun-21 17:30N 33°39' W 118°12'0 0.0
2018-Jun-21 17:00N 33°39' W 118°12'0 0.0
2018-Jun-21 16:29N 33°39' W 118°12'0 0.1
2018-Jun-21 16:00N 33°39' W 118°12'0 0.4
2018-Jun-21 15:31N 33°40' W 118°12'1 2.3
2018-Jun-21 15:01N 33°39' W 118°14'1 1.7
2018-Jun-21 14:30N 33°40' W 118°14'3 6.6
2018-Jun-21 14:01N 33°43' W 118°16'1 1.6
2018-Jun-21 13:30N 33°43' W 118°17'0 0.0
2018-Jun-21 01:27N 33°43' W 118°17'0 0.1
2018-Jun-21 01:01N 33°43' W 118°17'3 6.7
2018-Jun-21 00:31N 33°41' W 118°14'2 4.3
2018-Jun-21 00:01N 33°40' W 118°12'0 0.0
2018-Jun-20 23:30N 33°40' W 118°12'0 0.0
2018-Jun-20 23:01N 33°40' W 118°12'1 2.9
2018-Jun-20 22:30N 33°40' W 118°14'0 0.0
2018-Jun-20 22:00N 33°40' W 118°14'0 0.0
2018-Jun-20 21:30N 33°40' W 118°14'0 0.0
2018-Jun-20 21:00N 33°40' W 118°14'0 0.7
2018-Jun-20 20:30N 33°40' W 118°14'3 6.9
2018-Jun-20 20:01N 33°43' W 118°16'1 1.5
2018-Jun-20 19:29N 33°43' W 118°17'1 3.1
2018-Jun-20 19:01N 33°43' W 118°15'4 8.2
2018-Jun-20 18:30N 33°39' W 118°12'1 1.7
2018-Jun-20 18:00N 33°39' W 118°12'0 0.7
2018-Jun-20 17:31N 33°38' W 118°12'3 5.5
2018-Jun-20 17:01N 33°40' W 118°15'1 1.3
2018-Jun-20 16:31N 33°40' W 118°15'1 2.5
2018-Jun-20 15:58N 33°39' W 118°14'0 0.5
2018-Jun-20 15:30N 33°40' W 118°14'0 0.4
2018-Jun-20 14:59N 33°39' W 118°14'3 6.8
2018-Jun-20 14:30N 33°42' W 118°15'2 0.1
2018-Jun-20 00:47N 33°43' W 118°17'1 4.6
2018-Jun-20 00:30N 33°43' W 118°15'3 5.8
2018-Jun-20 00:00N 33°40' W 118°14'0 0.9
2018-Jun-19 23:30N 33°40' W 118°14'0 0.0
2018-Jun-19 23:00N 33°40' W 118°14'0 0.4
2018-Jun-19 22:30N 33°40' W 118°14'0 0.0
2018-Jun-19 22:00N 33°40' W 118°14'0 0.0
2018-Jun-19 21:30N 33°40' W 118°14'0 0.0
2018-Jun-19 21:01N 33°40' W 118°14'0 0.2
2018-Jun-19 20:30N 33°40' W 118°14'3 6.4
2018-Jun-19 20:00N 33°43' W 118°15'1 2.9
2018-Jun-19 19:31N 33°43' W 118°17'0 0.7
2018-Jun-19 19:00N 33°43' W 118°17'2 4.5
2018-Jun-19 18:31N 33°42' W 118°14'2 4.5
2018-Jun-19 17:59N 33°40' W 118°14'0 0.0
2018-Jun-19 17:30N 33°40' W 118°14'0 0.0
2018-Jun-19 17:00N 33°40' W 118°14'0 0.2
2018-Jun-19 16:29N 33°40' W 118°14'0 0.3
2018-Jun-19 16:00N 33°40' W 118°13'0 0.5
2018-Jun-19 15:30N 33°40' W 118°14'0 0.0
2018-Jun-19 15:00N 33°40' W 118°14'0 0.1
2018-Jun-19 14:30N 33°40' W 118°14'3 6.9
2018-Jun-19 14:01N 33°43' W 118°16'1 2.5
2018-Jun-19 13:30N 33°43' W 118°17'1 0.1
2018-Jun-19 00:39N 33°43' W 118°17'1 7.3
2018-Jun-19 00:30N 33°43' W 118°15'2 4.7
2018-Jun-19 00:00N 33°40' W 118°15'1 2.3
2018-Jun-18 23:30N 33°40' W 118°14'0 0.0
2018-Jun-18 23:00N 33°40' W 118°14'0 0.0
2018-Jun-18 22:30N 33°40' W 118°14'0 0.0
2018-Jun-18 22:00N 33°40' W 118°14'0 0.0
2018-Jun-18 21:30N 33°40' W 118°14'0 0.1
2018-Jun-18 21:00N 33°40' W 118°14'0 0.7
2018-Jun-18 20:30N 33°40' W 118°14'3 6.9
2018-Jun-18 20:00N 33°43' W 118°16'1 1.7
2018-Jun-18 19:30N 33°43' W 118°17'2 3.5
2018-Jun-18 19:00N 33°43' W 118°15'4 8.2
2018-Jun-18 18:30N 33°39' W 118°13'1 2.1
2018-Jun-18 18:00N 33°38' W 118°12'0 0.1
2018-Jun-18 17:29N 33°38' W 118°12'0 0.4
2018-Jun-18 17:00N 33°38' W 118°12'0 0.0
2018-Jun-18 16:30N 33°38' W 118°12'0 0.5
2018-Jun-18 16:00N 33°39' W 118°12'1 2.3
2018-Jun-18 15:30N 33°40' W 118°12'1 1.4
2018-Jun-18 15:00N 33°39' W 118°13'2 3.4
2018-Jun-18 14:30N 33°41' W 118°14'2 4.8
2018-Jun-18 14:00N 33°43' W 118°14'2 4.1
2018-Jun-18 13:30N 33°43' W 118°17'0 0.0
2018-Jun-18 12:59N 33°43' W 118°17'0 0.0
2018-Jun-18 03:28N 33°43' W 118°17'0 0.0
2018-Jun-18 03:00N 33°43' W 118°17'0 0.0
2018-Jun-18 02:30N 33°43' W 118°17'0 0.0
2018-Jun-18 01:58N 33°43' W 118°17'0 0.0
2018-Jun-18 01:30N 33°43' W 118°17'2 3.9
2018-Jun-18 01:00N 33°42' W 118°15'4 8.1
2018-Jun-18 00:30N 33°39' W 118°14'3 6.4
2018-Jun-17 23:58N 33°35' W 118°13'0 0.0
2018-Jun-17 23:30N 33°35' W 118°13'0 0.1
2018-Jun-17 22:59N 33°35' W 118°13'0 0.0
2018-Jun-17 22:30N 33°35' W 118°13'0 0.0
2018-Jun-17 22:00N 33°35' W 118°13'1 2.2
2018-Jun-17 21:30N 33°36' W 118°14'3 6.4
2018-Jun-17 21:00N 33°39' W 118°14'1 1.9
2018-Jun-17 20:30N 33°40' W 118°14'3 5.9
2018-Jun-17 20:00N 33°43' W 118°16'1 1.9
2018-Jun-17 19:30N 33°43' W 118°17'0 0.9
2018-Jun-17 19:00N 33°43' W 118°17'4 7.2
2018-Jun-17 18:30N 33°40' W 118°14'4 8.6
2018-Jun-17 18:00N 33°36' W 118°13'1 1.3
2018-Jun-17 17:30N 33°35' W 118°13'0 0.0
2018-Jun-17 17:00N 33°35' W 118°13'0 0.0
2018-Jun-17 16:30N 33°35' W 118°13'0 0.0
2018-Jun-17 16:00N 33°35' W 118°13'0 0.0
2018-Jun-17 15:30N 33°35' W 118°13'1 1.9
2018-Jun-17 15:00N 33°36' W 118°14'4 8.3
2018-Jun-17 14:30N 33°40' W 118°14'3 6.5
2018-Jun-17 14:00N 33°43' W 118°16'1 0.1
2018-Jun-17 07:02N 33°43' W 118°17'0 0.5
2018-Jun-17 07:00N 33°43' W 118°17'3 6.6
2018-Jun-17 06:30N 33°41' W 118°14'4 7.9
2018-Jun-17 06:00N 33°37' W 118°12'2 3.9
2018-Jun-17 05:30N 33°36' W 118°11'0 0.0
2018-Jun-17 04:59N 33°36' W 118°11'0 0.0
2018-Jun-17 04:30N 33°36' W 118°11'0 0.0
2018-Jun-17 04:00N 33°36' W 118°11'0 1.0
2018-Jun-17 03:30N 33°36' W 118°11'0 0.9
2018-Jun-17 03:00N 33°36' W 118°12'4 7.5
2018-Jun-17 02:30N 33°40' W 118°14'3 7.0
2018-Jun-17 02:00N 33°43' W 118°16'1 2.2
2018-Jun-17 01:29N 33°43' W 118°17'0 0.0
2018-Jun-17 01:00N 33°43' W 118°17'2 4.3
2018-Jun-17 00:30N 33°42' W 118°15'3 5.8
2018-Jun-17 00:00N 33°39' W 118°14'0 0.0
2018-Jun-16 23:30N 33°39' W 118°14'0 0.0
2018-Jun-16 23:00N 33°39' W 118°14'0 0.0
2018-Jun-16 22:30N 33°39' W 118°14'0 0.0
2018-Jun-16 22:00N 33°39' W 118°14'0 0.0
2018-Jun-16 21:30N 33°39' W 118°14'0 0.1
2018-Jun-16 21:00N 33°39' W 118°14'2 3.3
2018-Jun-16 20:30N 33°41' W 118°15'2 4.0
2018-Jun-16 20:00N 33°43' W 118°15'2 3.2
2018-Jun-16 19:29N 33°43' W 118°17'1 1.1
2018-Jun-16 19:00N 33°43' W 118°17'4 7.3
2018-Jun-16 18:30N 33°40' W 118°14'4 8.9
2018-Jun-16 18:00N 33°36' W 118°13'0 0.9
2018-Jun-16 17:30N 33°35' W 118°13'0 0.1
2018-Jun-16 17:00N 33°35' W 118°13'0 0.0
2018-Jun-16 16:30N 33°35' W 118°13'0 0.1
2018-Jun-16 16:00N 33°35' W 118°13'0 0.1
2018-Jun-16 15:30N 33°35' W 118°13'2 4.2
2018-Jun-16 15:00N 33°37' W 118°14'4 8.1
2018-Jun-16 14:30N 33°41' W 118°15'2 4.2
2018-Jun-16 14:00N 33°43' W 118°16'1 1.5
2018-Jun-16 13:30N 33°43' W 118°17'0 0.0
2018-Jun-16 07:19N 33°43' W 118°17'0 0.0
2018-Jun-16 06:58N 33°43' W 118°17'2 4.3
2018-Jun-16 06:30N 33°43' W 118°15'2 4.4
2018-Jun-16 06:00N 33°42' W 118°12'0 0.3
2018-Jun-16 05:30N 33°42' W 118°12'1 1.7
2018-Jun-16 05:00N 33°41' W 118°13'0 0.7
2018-Jun-16 04:30N 33°41' W 118°13'0 0.3
2018-Jun-16 04:00N 33°41' W 118°13'1 2.8
2018-Jun-16 03:29N 33°40' W 118°12'0 0.6
2018-Jun-16 03:00N 33°39' W 118°12'1 2.7
2018-Jun-16 02:30N 33°40' W 118°14'3 6.6
2018-Jun-16 02:00N 33°43' W 118°15'2 3.1
2018-Jun-16 01:30N 33°43' W 118°17'0 0.4
2018-Jun-16 01:00N 33°43' W 118°17'2 4.8
2018-Jun-16 00:30N 33°42' W 118°14'2 4.7
2018-Jun-16 00:00N 33°40' W 118°14'0 0.0
2018-Jun-15 23:30N 33°40' W 118°14'0 0.0
2018-Jun-15 23:00N 33°40' W 118°14'0 0.3
2018-Jun-15 22:30N 33°40' W 118°14'0 0.0
2018-Jun-15 22:00N 33°40' W 118°14'1 2.4
2018-Jun-15 21:29N 33°40' W 118°15'0 0.0
2018-Jun-15 21:00N 33°40' W 118°15'0 0.2
2018-Jun-15 20:30N 33°40' W 118°15'3 5.4
2018-Jun-15 20:00N 33°43' W 118°16'1 1.7
2018-Jun-15 19:30N 33°43' W 118°17'0 0.0
2018-Jun-15 19:00N 33°43' W 118°17'2 3.1
2018-Jun-15 18:30N 33°43' W 118°15'2 4.8
2018-Jun-15 18:00N 33°40' W 118°14'1 1.7
2018-Jun-15 17:30N 33°40' W 118°14'0 0.0
2018-Jun-15 17:00N 33°40' W 118°14'0 0.0
2018-Jun-15 16:30N 33°40' W 118°14'0 0.0
2018-Jun-15 16:00N 33°40' W 118°14'0 0.0
2018-Jun-15 15:30N 33°40' W 118°14'0 0.6
2018-Jun-15 15:00N 33°40' W 118°14'4 7.5
2018-Jun-15 14:30N 33°44' W 118°14'1 2.7
2018-Jun-15 14:00N 33°43' W 118°15'1 3.0
2018-Jun-15 13:30N 33°43' W 118°17'0 0.0
2018-Jun-15 02:08N 33°43' W 118°17'0 0.0
2018-Jun-15 02:00N 33°43' W 118°17'0 0.0
2018-Jun-15 01:30N 33°43' W 118°17'0 0.0
2018-Jun-15 01:00N 33°43' W 118°17'1 2.2
2018-Jun-15 00:30N 33°43' W 118°16'3 5.0
2018-Jun-15 00:00N 33°40' W 118°15'1 2.3
2018-Jun-14 23:29N 33°40' W 118°14'0 0.0
2018-Jun-14 23:00N 33°40' W 118°14'0 0.0
2018-Jun-14 22:28N 33°40' W 118°14'0 0.0
2018-Jun-14 22:00N 33°40' W 118°14'0 0.0
2018-Jun-14 21:30N 33°40' W 118°14'0 0.0
2018-Jun-14 21:00N 33°40' W 118°14'0 0.1
2018-Jun-14 20:28N 33°40' W 118°14'3 6.9
2018-Jun-14 20:00N 33°43' W 118°15'2 3.1
2018-Jun-14 19:30N 33°43' W 118°17'0 0.1
2018-Jun-14 19:00N 33°43' W 118°17'3 6.8
2018-Jun-14 18:30N 33°41' W 118°14'4 8.8
2018-Jun-14 18:00N 33°37' W 118°13'1 2.7
2018-Jun-14 17:30N 33°35' W 118°13'0 0.0
2018-Jun-14 17:00N 33°35' W 118°13'0 0.1
2018-Jun-14 16:30N 33°35' W 118°13'0 0.0
2018-Jun-14 16:00N 33°35' W 118°13'1 1.5
2018-Jun-14 15:30N 33°36' W 118°13'2 5.0
2018-Jun-14 15:00N 33°38' W 118°13'2 3.3
2018-Jun-14 14:30N 33°40' W 118°14'4 7.2
2018-Jun-14 14:00N 33°43' W 118°16'1 0.1
2018-Jun-14 02:06N 33°43' W 118°17'0 0.0
2018-Jun-14 01:59N 33°43' W 118°17'1 1.6
2018-Jun-14 01:30N 33°43' W 118°16'1 2.3
2018-Jun-14 01:00N 33°44' W 118°16'2 4.2
2018-Jun-14 00:30N 33°42' W 118°16'4 5.9
2018-Jun-13 23:45N 33°43' W 118°21'0 0.0
2018-Jun-13 23:28N 33°43' W 118°21'0 0.0
2018-Jun-13 22:52N 33°43' W 118°21'0 0.0
2018-Jun-13 22:30N 33°43' W 118°21'1 0.6
2018-Jun-13 20:59N 33°43' W 118°20'2 4.5
2018-Jun-13 20:29N 33°42' W 118°18'2 3.7
2018-Jun-13 20:00N 33°43' W 118°16'1 1.7
2018-Jun-13 19:30N 33°43' W 118°17'1 1.1
2018-Jun-13 19:00N 33°43' W 118°17'2 0.4
2018-Jun-13 14:13N 33°42' W 118°15'1 6.5
2018-Jun-13 14:00N 33°43' W 118°16'1 2.0
2018-Jun-13 13:30N 33°43' W 118°17'0 0.0
2018-Jun-13 00:43N 33°43' W 118°17'1 6.8
2018-Jun-13 00:30N 33°43' W 118°15'4 6.9
2018-Jun-12 23:59N 33°43' W 118°19'0 0.4
2018-Jun-12 23:25N 33°43' W 118°20'0 1.2
2018-Jun-12 23:00N 33°43' W 118°19'0 0.0
2018-Jun-12 22:29N 33°43' W 118°19'1 2.7
2018-Jun-12 21:58N 33°42' W 118°18'0 0.1
2018-Jun-12 21:30N 33°42' W 118°17'0 0.1
2018-Jun-12 21:00N 33°42' W 118°17'1 1.4
2018-Jun-12 20:31N 33°42' W 118°17'1 1.9
2018-Jun-12 20:01N 33°43' W 118°16'1 1.5
2018-Jun-12 19:30N 33°43' W 118°17'0 0.4
2018-Jun-12 19:00N 33°43' W 118°17'4 7.5
2018-Jun-12 18:30N 33°40' W 118°14'2 4.3
2018-Jun-12 18:01N 33°38' W 118°14'3 6.1
2018-Jun-12 17:30N 33°35' W 118°13'0 0.0
2018-Jun-12 17:00N 33°35' W 118°13'0 0.0
2018-Jun-12 16:30N 33°35' W 118°13'0 0.0
2018-Jun-12 16:00N 33°35' W 118°13'0 0.1
2018-Jun-12 15:29N 33°35' W 118°13'0 0.6
2018-Jun-12 14:59N 33°35' W 118°13'4 7.5
2018-Jun-12 14:30N 33°39' W 118°14'4 7.7
2018-Jun-12 14:01N 33°43' W 118°15'1 2.9
2018-Jun-12 13:30N 33°43' W 118°17'1 0.1
2018-Jun-12 00:54N 33°43' W 118°16'2 4.1
2018-Jun-12 00:30N 33°42' W 118°18'2 4.7
2018-Jun-12 00:00N 33°43' W 118°20'  
Track history (hours):
 
Tides and Currents Weather Stations Pressure Air Temp Water Temp Dewpoint Dewpoint Depression Visibility Wind Speed Wind Dir Waves Ship Positions

Monte Carlo

Owner: PREMIER FISH CO., REDONDO BEACH, CA. More information available from US FCC via Universal Licensing System and Coast Guard Vessel Documentation Center.

Last reported at 2018-Jun-22 00:00 UTC. Time now 2018-Jun-21 23:58 UTC.
Position N 33°40' W 118°15'.

Length 22 m.

Type: Fishing. MMSI: 367176990.

Date/timePositionNaut miles runAvg speedWind from/ knotsBaromVisibWave heightAir tempDewpointWater temp
2018-Jun-22 00:00N 33°40' W 118°15'0 0.1
2018-Jun-21 23:30N 33°40' W 118°15'1 2.8
2018-Jun-21 23:00N 33°40' W 118°14'0 0.0
2018-Jun-21 22:30N 33°40' W 118°14'0 0.7
2018-Jun-21 22:01N 33°40' W 118°14'1 1.5
2018-Jun-21 21:30N 33°41' W 118°14'0 0.1
2018-Jun-21 20:59N 33°41' W 118°14'0 0.0
2018-Jun-21 20:31N 33°41' W 118°14'3 5.8
2018-Jun-21 20:00N 33°43' W 118°16'1 1.9
2018-Jun-21 19:31N 33°43' W 118°17'0 0.2
2018-Jun-21 19:01N 33°43' W 118°17'4 7.2
2018-Jun-21 18:31N 33°41' W 118°13'2 4.1
2018-Jun-21 18:00N 33°39' W 118°12'0 0.0
2018-Jun-21 17:30N 33°39' W 118°12'0 0.0
2018-Jun-21 17:00N 33°39' W 118°12'0 0.0
2018-Jun-21 16:29N 33°39' W 118°12'0 0.1
2018-Jun-21 16:00N 33°39' W 118°12'0 0.4
2018-Jun-21 15:31N 33°40' W 118°12'1 2.3
2018-Jun-21 15:01N 33°39' W 118°14'1 1.7
2018-Jun-21 14:30N 33°40' W 118°14'3 6.6
2018-Jun-21 14:01N 33°43' W 118°16'1 1.6
2018-Jun-21 13:30N 33°43' W 118°17'0 0.0
2018-Jun-21 01:27N 33°43' W 118°17'0 0.1
2018-Jun-21 01:01N 33°43' W 118°17'3 6.7
2018-Jun-21 00:31N 33°41' W 118°14'2 4.3
2018-Jun-21 00:01N 33°40' W 118°12'0 0.0
2018-Jun-20 23:30N 33°40' W 118°12'0 0.0
2018-Jun-20 23:01N 33°40' W 118°12'1 2.9
2018-Jun-20 22:30N 33°40' W 118°14'0 0.0
2018-Jun-20 22:00N 33°40' W 118°14'0 0.0
2018-Jun-20 21:30N 33°40' W 118°14'0 0.0
2018-Jun-20 21:00N 33°40' W 118°14'0 0.7
2018-Jun-20 20:30N 33°40' W 118°14'3 6.9
2018-Jun-20 20:01N 33°43' W 118°16'1 1.5
2018-Jun-20 19:29N 33°43' W 118°17'1 3.1
2018-Jun-20 19:01N 33°43' W 118°15'4 8.2
2018-Jun-20 18:30N 33°39' W 118°12'1 1.7
2018-Jun-20 18:00N 33°39' W 118°12'0 0.7
2018-Jun-20 17:31N 33°38' W 118°12'3 5.5
2018-Jun-20 17:01N 33°40' W 118°15'1 1.3
2018-Jun-20 16:31N 33°40' W 118°15'1 2.5
2018-Jun-20 15:58N 33°39' W 118°14'0 0.5
2018-Jun-20 15:30N 33°40' W 118°14'0 0.4
2018-Jun-20 14:59N 33°39' W 118°14'3 6.8
2018-Jun-20 14:30N 33°42' W 118°15'2 0.1
2018-Jun-20 00:47N 33°43' W 118°17'1 4.6
2018-Jun-20 00:30N 33°43' W 118°15'3 5.8
2018-Jun-20 00:00N 33°40' W 118°14'0 0.9
2018-Jun-19 23:30N 33°40' W 118°14'0 0.0
2018-Jun-19 23:00N 33°40' W 118°14'0 0.4
2018-Jun-19 22:30N 33°40' W 118°14'0 0.0
2018-Jun-19 22:00N 33°40' W 118°14'0 0.0
2018-Jun-19 21:30N 33°40' W 118°14'0 0.0
2018-Jun-19 21:01N 33°40' W 118°14'0 0.2
2018-Jun-19 20:30N 33°40' W 118°14'3 6.4
2018-Jun-19 20:00N 33°43' W 118°15'1 2.9
2018-Jun-19 19:31N 33°43' W 118°17'0 0.7
2018-Jun-19 19:00N 33°43' W 118°17'2 4.5
2018-Jun-19 18:31N 33°42' W 118°14'2 4.5
2018-Jun-19 17:59N 33°40' W 118°14'0 0.0
2018-Jun-19 17:30N 33°40' W 118°14'0 0.0
2018-Jun-19 17:00N 33°40' W 118°14'0 0.2
2018-Jun-19 16:29N 33°40' W 118°14'0 0.3
2018-Jun-19 16:00N 33°40' W 118°13'0 0.5
2018-Jun-19 15:30N 33°40' W 118°14'0 0.0
2018-Jun-19 15:00N 33°40' W 118°14'0 0.1
2018-Jun-19 14:30N 33°40' W 118°14'3 6.9
2018-Jun-19 14:01N 33°43' W 118°16'1 2.5
2018-Jun-19 13:30N 33°43' W 118°17'1 0.1
2018-Jun-19 00:39N 33°43' W 118°17'1 7.3
2018-Jun-19 00:30N 33°43' W 118°15'2 4.7
2018-Jun-19 00:00N 33°40' W 118°15'1 2.3
2018-Jun-18 23:30N 33°40' W 118°14'0 0.0
2018-Jun-18 23:00N 33°40' W 118°14'0 0.0
2018-Jun-18 22:30N 33°40' W 118°14'0 0.0
2018-Jun-18 22:00N 33°40' W 118°14'0 0.0
2018-Jun-18 21:30N 33°40' W 118°14'0 0.1
2018-Jun-18 21:00N 33°40' W 118°14'0 0.7
2018-Jun-18 20:30N 33°40' W 118°14'3 6.9
2018-Jun-18 20:00N 33°43' W 118°16'1 1.7
2018-Jun-18 19:30N 33°43' W 118°17'2 3.5
2018-Jun-18 19:00N 33°43' W 118°15'4 8.2
2018-Jun-18 18:30N 33°39' W 118°13'1 2.1
2018-Jun-18 18:00N 33°38' W 118°12'0 0.1
2018-Jun-18 17:29N 33°38' W 118°12'0 0.4
2018-Jun-18 17:00N 33°38' W 118°12'0 0.0
2018-Jun-18 16:30N 33°38' W 118°12'0 0.5
2018-Jun-18 16:00N 33°39' W 118°12'1 2.3
2018-Jun-18 15:30N 33°40' W 118°12'1 1.4
2018-Jun-18 15:00N 33°39' W 118°13'2 3.4
2018-Jun-18 14:30N 33°41' W 118°14'2 4.8
2018-Jun-18 14:00N 33°43' W 118°14'2 4.1
2018-Jun-18 13:30N 33°43' W 118°17'0 0.0
2018-Jun-18 12:59N 33°43' W 118°17'0 0.0
2018-Jun-18 03:28N 33°43' W 118°17'0 0.0
2018-Jun-18 03:00N 33°43' W 118°17'0 0.0
2018-Jun-18 02:30N 33°43' W 118°17'0 0.0
2018-Jun-18 01:58N 33°43' W 118°17'0 0.0
2018-Jun-18 01:30N 33°43' W 118°17'2 3.9
2018-Jun-18 01:00N 33°42' W 118°15'4 8.1
2018-Jun-18 00:30N 33°39' W 118°14'3 6.4
2018-Jun-17 23:58N 33°35' W 118°13'0 0.0
2018-Jun-17 23:30N 33°35' W 118°13'0 0.1
2018-Jun-17 22:59N 33°35' W 118°13'0 0.0
2018-Jun-17 22:30N 33°35' W 118°13'0 0.0
2018-Jun-17 22:00N 33°35' W 118°13'1 2.2
2018-Jun-17 21:30N 33°36' W 118°14'3 6.4
2018-Jun-17 21:00N 33°39' W 118°14'1 1.9
2018-Jun-17 20:30N 33°40' W 118°14'3 5.9
2018-Jun-17 20:00N 33°43' W 118°16'1 1.9
2018-Jun-17 19:30N 33°43' W 118°17'0 0.9
2018-Jun-17 19:00N 33°43' W 118°17'4 7.2
2018-Jun-17 18:30N 33°40' W 118°14'4 8.6
2018-Jun-17 18:00N 33°36' W 118°13'1 1.3
2018-Jun-17 17:30N 33°35' W 118°13'0 0.0
2018-Jun-17 17:00N 33°35' W 118°13'0 0.0
2018-Jun-17 16:30N 33°35' W 118°13'0 0.0
2018-Jun-17 16:00N 33°35' W 118°13'0 0.0
2018-Jun-17 15:30N 33°35' W 118°13'1 1.9
2018-Jun-17 15:00N 33°36' W 118°14'4 8.3
2018-Jun-17 14:30N 33°40' W 118°14'3 6.5
2018-Jun-17 14:00N 33°43' W 118°16'1 0.1
2018-Jun-17 07:02N 33°43' W 118°17'0 0.5
2018-Jun-17 07:00N 33°43' W 118°17'3 6.6
2018-Jun-17 06:30N 33°41' W 118°14'4 7.9
2018-Jun-17 06:00N 33°37' W 118°12'2 3.9
2018-Jun-17 05:30N 33°36' W 118°11'0 0.0
2018-Jun-17 04:59N 33°36' W 118°11'0 0.0
2018-Jun-17 04:30N 33°36' W 118°11'0 0.0
2018-Jun-17 04:00N 33°36' W 118°11'0 1.0
2018-Jun-17 03:30N 33°36' W 118°11'0 0.9
2018-Jun-17 03:00N 33°36' W 118°12'4 7.5
2018-Jun-17 02:30N 33°40' W 118°14'3 7.0
2018-Jun-17 02:00N 33°43' W 118°16'1 2.2
2018-Jun-17 01:29N 33°43' W 118°17'0 0.0
2018-Jun-17 01:00N 33°43' W 118°17'2 4.3
2018-Jun-17 00:30N 33°42' W 118°15'3 5.8
2018-Jun-17 00:00N 33°39' W 118°14'0 0.0
2018-Jun-16 23:30N 33°39' W 118°14'0 0.0
2018-Jun-16 23:00N 33°39' W 118°14'0 0.0
2018-Jun-16 22:30N 33°39' W 118°14'0 0.0
2018-Jun-16 22:00N 33°39' W 118°14'0 0.0
2018-Jun-16 21:30N 33°39' W 118°14'0 0.1
2018-Jun-16 21:00N 33°39' W 118°14'2 3.3
2018-Jun-16 20:30N 33°41' W 118°15'2 4.0
2018-Jun-16 20:00N 33°43' W 118°15'2 3.2
2018-Jun-16 19:29N 33°43' W 118°17'1 1.1
2018-Jun-16 19:00N 33°43' W 118°17'4 7.3
2018-Jun-16 18:30N 33°40' W 118°14'4 8.9
2018-Jun-16 18:00N 33°36' W 118°13'0 0.9
2018-Jun-16 17:30N 33°35' W 118°13'0 0.1
2018-Jun-16 17:00N 33°35' W 118°13'0 0.0
2018-Jun-16 16:30N 33°35' W 118°13'0 0.1
2018-Jun-16 16:00N 33°35' W 118°13'0 0.1
2018-Jun-16 15:30N 33°35' W 118°13'2 4.2
2018-Jun-16 15:00N 33°37' W 118°14'4 8.1
2018-Jun-16 14:30N 33°41' W 118°15'2 4.2
2018-Jun-16 14:00N 33°43' W 118°16'1 1.5
2018-Jun-16 13:30N 33°43' W 118°17'0 0.0
2018-Jun-16 07:19N 33°43' W 118°17'0 0.0
2018-Jun-16 06:58N 33°43' W 118°17'2 4.3
2018-Jun-16 06:30N 33°43' W 118°15'2 4.4
2018-Jun-16 06:00N 33°42' W 118°12'0 0.3
2018-Jun-16 05:30N 33°42' W 118°12'1 1.7
2018-Jun-16 05:00N 33°41' W 118°13'0 0.7
2018-Jun-16 04:30N 33°41' W 118°13'0 0.3
2018-Jun-16 04:00N 33°41' W 118°13'1 2.8
2018-Jun-16 03:29N 33°40' W 118°12'0 0.6
2018-Jun-16 03:00N 33°39' W 118°12'1 2.7
2018-Jun-16 02:30N 33°40' W 118°14'3 6.6
2018-Jun-16 02:00N 33°43' W 118°15'2 3.1
2018-Jun-16 01:30N 33°43' W 118°17'0 0.4
2018-Jun-16 01:00N 33°43' W 118°17'2 4.8
2018-Jun-16 00:30N 33°42' W 118°14'2 4.7
2018-Jun-16 00:00N 33°40' W 118°14'0 0.0
2018-Jun-15 23:30N 33°40' W 118°14'0 0.0
2018-Jun-15 23:00N 33°40' W 118°14'0 0.3
2018-Jun-15 22:30N 33°40' W 118°14'0 0.0
2018-Jun-15 22:00N 33°40' W 118°14'1 2.4
2018-Jun-15 21:29N 33°40' W 118°15'0 0.0
2018-Jun-15 21:00N 33°40' W 118°15'0 0.2
2018-Jun-15 20:30N 33°40' W 118°15'3 5.4
2018-Jun-15 20:00N 33°43' W 118°16'1 1.7
2018-Jun-15 19:30N 33°43' W 118°17'0 0.0
2018-Jun-15 19:00N 33°43' W 118°17'2 3.1
2018-Jun-15 18:30N 33°43' W 118°15'2 4.8
2018-Jun-15 18:00N 33°40' W 118°14'1 1.7
2018-Jun-15 17:30N 33°40' W 118°14'0 0.0
2018-Jun-15 17:00N 33°40' W 118°14'0 0.0
2018-Jun-15 16:30N 33°40' W 118°14'0 0.0
2018-Jun-15 16:00N 33°40' W 118°14'0 0.0
2018-Jun-15 15:30N 33°40' W 118°14'0 0.6
2018-Jun-15 15:00N 33°40' W 118°14'4 7.5
2018-Jun-15 14:30N 33°44' W 118°14'1 2.7
2018-Jun-15 14:00N 33°43' W 118°15'1 3.0
2018-Jun-15 13:30N 33°43' W 118°17'0 0.0
2018-Jun-15 02:08N 33°43' W 118°17'0 0.0
2018-Jun-15 02:00N 33°43' W 118°17'0 0.0
2018-Jun-15 01:30N 33°43' W 118°17'0 0.0
2018-Jun-15 01:00N 33°43' W 118°17'1 2.2
2018-Jun-15 00:30N 33°43' W 118°16'3 5.0
2018-Jun-15 00:00N 33°40' W 118°15'1 2.3
2018-Jun-14 23:29N 33°40' W 118°14'0 0.0
2018-Jun-14 23:00N 33°40' W 118°14'0 0.0
2018-Jun-14 22:28N 33°40' W 118°14'0 0.0
2018-Jun-14 22:00N 33°40' W 118°14'0 0.0
2018-Jun-14 21:30N 33°40' W 118°14'0 0.0
2018-Jun-14 21:00N 33°40' W 118°14'0 0.1
2018-Jun-14 20:28N 33°40' W 118°14'3 6.9
2018-Jun-14 20:00N 33°43' W 118°15'2 3.1
2018-Jun-14 19:30N 33°43' W 118°17'0 0.1
2018-Jun-14 19:00N 33°43' W 118°17'3 6.8
2018-Jun-14 18:30N 33°41' W 118°14'4 8.8
2018-Jun-14 18:00N 33°37' W 118°13'1 2.7
2018-Jun-14 17:30N 33°35' W 118°13'0 0.0
2018-Jun-14 17:00N 33°35' W 118°13'0 0.1
2018-Jun-14 16:30N 33°35' W 118°13'0 0.0
2018-Jun-14 16:00N 33°35' W 118°13'1 1.5
2018-Jun-14 15:30N 33°36' W 118°13'2 5.0
2018-Jun-14 15:00N 33°38' W 118°13'2 3.3
2018-Jun-14 14:30N 33°40' W 118°14'4 7.2
2018-Jun-14 14:00N 33°43' W 118°16'1 0.1
2018-Jun-14 02:06N 33°43' W 118°17'0 0.0
2018-Jun-14 01:59N 33°43' W 118°17'1 1.6
2018-Jun-14 01:30N 33°43' W 118°16'1 2.3
2018-Jun-14 01:00N 33°44' W 118°16'2 4.2
2018-Jun-14 00:30N 33°42' W 118°16'4 5.9
2018-Jun-13 23:45N 33°43' W 118°21'0 0.0
2018-Jun-13 23:28N 33°43' W 118°21'0 0.0
2018-Jun-13 22:52N 33°43' W 118°21'0 0.0
2018-Jun-13 22:30N 33°43' W 118°21'1 0.6
2018-Jun-13 20:59N 33°43' W 118°20'2 4.5
2018-Jun-13 20:29N 33°42' W 118°18'2 3.7
2018-Jun-13 20:00N 33°43' W 118°16'1 1.7
2018-Jun-13 19:30N 33°43' W 118°17'1 1.1
2018-Jun-13 19:00N 33°43' W 118°17'2 0.4
2018-Jun-13 14:13N 33°42' W 118°15'1 6.5
2018-Jun-13 14:00N 33°43' W 118°16'1 2.0
2018-Jun-13 13:30N 33°43' W 118°17'0 0.0
2018-Jun-13 00:43N 33°43' W 118°17'1 6.8
2018-Jun-13 00:30N 33°43' W 118°15'4 6.9
2018-Jun-12 23:59N 33°43' W 118°19'0 0.4
2018-Jun-12 23:25N 33°43' W 118°20'0 1.2
2018-Jun-12 23:00N 33°43' W 118°19'0 0.0
2018-Jun-12 22:29N 33°43' W 118°19'1 2.7
2018-Jun-12 21:58N 33°42' W 118°18'0 0.1
2018-Jun-12 21:30N 33°42' W 118°17'0 0.1
2018-Jun-12 21:00N 33°42' W 118°17'1 1.4
2018-Jun-12 20:31N 33°42' W 118°17'1 1.9
2018-Jun-12 20:01N 33°43' W 118°16'1 1.5
2018-Jun-12 19:30N 33°43' W 118°17'0 0.4
2018-Jun-12 19:00N 33°43' W 118°17'4 7.5
2018-Jun-12 18:30N 33°40' W 118°14'2 4.3
2018-Jun-12 18:01N 33°38' W 118°14'3 6.1
2018-Jun-12 17:30N 33°35' W 118°13'0 0.0
2018-Jun-12 17:00N 33°35' W 118°13'0 0.0
2018-Jun-12 16:30N 33°35' W 118°13'0 0.0
2018-Jun-12 16:00N 33°35' W 118°13'0 0.1
2018-Jun-12 15:29N 33°35' W 118°13'0 0.6
2018-Jun-12 14:59N 33°35' W 118°13'4 7.5
2018-Jun-12 14:30N 33°39' W 118°14'4 7.7
2018-Jun-12 14:01N 33°43' W 118°15'1 2.9
2018-Jun-12 13:30N 33°43' W 118°17'1 0.1
2018-Jun-12 00:54N 33°43' W 118°16'2 4.1
2018-Jun-12 00:30N 33°42' W 118°18'2 4.7
2018-Jun-12 00:00N 33°43' W 118°20'  

Dump ship's entire track history